Time;durP1;ratioP1;P1;durP2;ratioP2;P2;SDS_P1;SDS_P2;PMS_P1;PMS_P2;Temp;Humidity;BMP_temperature;BMP_pressure;BME280_temperature;BME280_humidity;BME280_pressure;Samples;Min_cycle;Max_cycle;Signal;HPM_P1;HPM_P2
2023/07/16 11:25:16;;;;;;;4.28;0.47;;;;;;;36.80;65.67;98927.44;7269227;19;3089832;-60
2023/07/16 11:27:43;;;;;;;0.68;0.20;;;;;;;32.37;80.09;98927.44;7427932;19;20442;-60
2023/07/16 11:30:09;;;;;;;0.10;0.08;;;;;;;28.30;100.00;98931.03;7429569;19;20010;-60
2023/07/16 11:32:37;;;;;;;1.45;0.32;;;;;;;25.30;100.00;98936.81;7425926;19;20070;-60
2023/07/16 11:35:07;;;;;;;0.10;0.00;;;;;;;26.64;100.00;98927.19;7430343;19;20025;-59
2023/07/16 11:37:35;;;;;;;0.50;0.27;;;;;;;30.73;95.26;98916.44;7430337;19;20025;-59
2023/07/16 11:40:06;;;;;;;0.10;0.10;;;;;;;23.66;100.00;98931.16;7429099;19;20738;-60
2023/07/16 11:42:39;;;;;;;0.17;0.10;;;;;;;21.17;100.00;98938.00;7429509;19;20342;-59
2023/07/16 11:45:18;;;;;;;2.17;0.30;;;;;;;26.81;100.00;98924.13;7430073;19;20006;-59
2023/07/16 11:47:45;;;;;;;0.10;0.10;;;;;;;22.77;100.00;98936.50;7429880;19;20465;-59
2023/07/16 11:50:11;;;;;;;3.75;0.55;;;;;;;26.06;100.00;98926.66;7428521;19;20010;-58
2023/07/16 11:52:39;;;;;;;0.25;0.05;;;;;;;22.28;100.00;98932.34;7429033;19;20014;-59
2023/07/16 11:55:05;;;;;;;0.22;0.22;;;;;;;22.28;100.00;98940.88;7430177;19;20014;-58
2023/07/16 11:57:32;;;;;;;0.10;0.10;;;;;;;30.87;100.00;98932.97;7430133;19;20018;-61
2023/07/16 11:59:58;;;;;;;1.25;0.10;;;;;;;32.90;82.30;98931.28;7432799;19;20030;-60
2023/07/16 12:02:26;;;;;;;0.22;0.20;;;;;;;33.03;85.24;98938.38;7433747;19;20007;-61
2023/07/16 12:04:52;;;;;;;0.40;0.17;;;;;;;35.47;71.55;98940.69;7429663;19;20033;-61
2023/07/16 12:07:31;;;;;;;0.00;0.00;;;;;;;31.96;80.83;98948.59;7430428;19;20029;-59
2023/07/16 12:09:57;;;;;;;0.10;0.10;;;;;;;33.18;77.17;98940.47;7432710;19;20046;-59
2023/07/16 12:12:23;;;;;;;0.10;0.00;;;;;;;30.76;94.41;98954.66;7431032;19;20033;-59
2023/07/16 12:14:49;;;;;;;1.95;0.43;;;;;;;25.69;100.00;98951.06;7431014;19;20034;-60
2023/07/16 12:17:15;;;;;;;0.30;0.30;;;;;;;24.02;100.00;98959.66;7430553;19;20014;-60
2023/07/16 12:19:41;;;;;;;0.10;0.00;;;;;;;25.96;100.00;98960.94;7430294;19;20007;-59
2023/07/16 12:22:08;;;;;;;0.15;0.13;;;;;;;22.03;100.00;98965.59;7430705;19;20019;-60
2023/07/16 12:24:34;;;;;;;0.73;0.20;;;;;;;23.84;100.00;98966.75;7419008;19;20007;-60
2023/07/16 12:27:00;;;;;;;0.10;0.00;;;;;;;26.80;100.00;98960.50;7401831;19;20010;-60
2023/07/16 12:29:26;;;;;;;0.00;0.00;;;;;;;34.44;79.05;98955.75;7400964;19;20010;-60
2023/07/16 12:31:52;;;;;;;0.65;0.20;;;;;;;35.38;70.13;98950.53;7399585;19;20014;-61
2023/07/16 12:34:19;;;;;;;0.63;0.10;;;;;;;30.60;87.11;98963.16;7396744;19;20022;-61
2023/07/16 12:36:45;;;;;;;0.20;0.15;;;;;;;27.16;100.00;98964.34;7398033;19;20092;-60
2023/07/16 12:39:11;;;;;;;0.10;0.00;;;;;;;24.06;100.00;98968.53;7395526;19;20383;-61
2023/07/16 12:41:37;;;;;;;0.20;0.20;;;;;;;23.37;100.00;98964.28;7399259;19;20038;-62
2023/07/16 12:44:03;;;;;;;0.10;0.00;;;;;;;23.29;100.00;98958.66;7395382;19;20015;-61
2023/07/16 12:46:29;;;;;;;0.40;0.10;;;;;;;23.47;100.00;98961.53;7396673;19;20019;-62
2023/07/16 12:48:56;;;;;;;0.10;0.10;;;;;;;23.04;100.00;98962.94;7398649;19;20015;-62
2023/07/16 12:51:22;;;;;;;0.10;0.10;;;;;;;22.70;100.00;98951.53;7398989;19;20044;-62
2023/07/16 12:53:48;;;;;;;0.20;0.10;;;;;;;22.69;100.00;98969.88;7400003;19;20066;-62
2023/07/16 12:56:14;;;;;;;0.88;0.20;;;;;;;22.46;100.00;98982.13;7399229;19;20569;-62
2023/07/16 12:58:40;;;;;;;0.80;0.32;;;;;;;23.03;100.00;98984.88;7399113;19;20018;-62
2023/07/16 13:01:07;;;;;;;0.08;0.00;;;;;;;23.29;100.00;98980.63;7398887;19;20397;-62
2023/07/16 13:03:33;;;;;;;0.10;0.00;;;;;;;23.61;100.00;98989.00;7398677;19;20335;-63
2023/07/16 13:06:00;;;;;;;0.10;0.10;;;;;;;23.89;100.00;98990.53;7401581;19;20015;-63
2023/07/16 13:08:26;;;;;;;0.10;0.00;;;;;;;23.53;100.00;98985.50;7398652;19;20465;-62
2023/07/16 13:10:52;;;;;;;0.10;0.00;;;;;;;23.44;100.00;98991.09;7398596;19;20011;-62
2023/07/16 13:13:18;;;;;;;0.00;0.00;;;;;;;23.45;100.00;98986.94;7397510;19;20021;-60
2023/07/16 13:15:45;;;;;;;0.28;0.28;;;;;;;23.04;100.00;98986.38;7398237;19;20101;-61
2023/07/16 13:18:11;;;;;;;1.10;0.00;;;;;;;23.36;100.00;98991.22;7400847;19;20104;-61
2023/07/16 13:20:38;;;;;;;0.08;0.00;;;;;;;22.67;100.00;99006.63;7398297;19;20010;-61
2023/07/16 13:23:04;;;;;;;0.25;0.10;;;;;;;22.96;100.00;99011.28;7398090;19;20078;-61
2023/07/16 13:25:30;;;;;;;0.00;0.00;;;;;;;22.18;100.00;99025.06;7396667;19;20014;-61
2023/07/16 13:27:57;;;;;;;0.10;0.00;;;;;;;21.93;100.00;99040.53;7397378;19;20014;-59
2023/07/16 13:30:23;;;;;;;0.20;0.10;;;;;;;21.67;100.00;99039.66;7400772;19;20011;-59
2023/07/16 13:32:49;;;;;;;0.10;0.10;;;;;;;21.11;100.00;99046.56;7396975;19;20360;-60
2023/07/16 13:35:15;;;;;;;2.20;0.47;;;;;;;21.16;100.00;99041.28;7396009;19;20036;-60
2023/07/16 13:37:42;;;;;;;0.10;0.10;;;;;;;21.29;100.00;99046.75;7396326;19;20011;-60
2023/07/16 13:40:08;;;;;;;0.30;0.20;;;;;;;21.11;100.00;99043.72;7395163;19;20034;-60
2023/07/16 13:42:34;;;;;;;0.43;0.10;;;;;;;21.77;100.00;99036.97;7399752;19;20010;-60
2023/07/16 13:45:00;;;;;;;0.55;0.10;;;;;;;21.95;100.00;99035.78;7397359;19;20025;-60
2023/07/16 13:47:27;;;;;;;0.05;0.00;;;;;;;21.93;100.00;99032.78;7397755;19;20454;-60
2023/07/16 13:49:53;;;;;;;0.10;0.10;;;;;;;21.95;100.00;99040.69;7397397;19;20010;-60
2023/07/16 13:52:19;;;;;;;0.38;0.20;;;;;;;22.08;100.00;99032.69;7398893;19;20015;-60
2023/07/16 13:54:45;;;;;;;0.35;0.20;;;;;;;22.29;100.00;99032.38;7395421;19;20352;-60
2023/07/16 13:57:11;;;;;;;0.00;0.00;;;;;;;;;;7397729;19;20070;-60
2023/07/16 13:59:37;;;;;;;0.10;0.10;;;;;;;21.78;100.00;99046.97;7396754;19;20089;-60
2023/07/16 14:02:04;;;;;;;0.00;0.00;;;;;;;21.47;100.00;99048.38;7398312;19;20014;-60
2023/07/16 14:04:30;;;;;;;0.10;0.10;;;;;;;21.14;100.00;99056.00;7396708;19;20066;-59
2023/07/16 14:06:56;;;;;;;1.27;0.43;;;;;;;20.44;100.00;99055.78;7396788;19;20090;-60
2023/07/16 14:09:22;;;;;;;0.05;0.00;;;;;;;20.31;100.00;99061.59;7396524;19;20014;-60
2023/07/16 14:11:49;;;;;;;0.22;0.22;;;;;;;19.66;100.00;99066.56;7397928;19;20011;-61
2023/07/16 14:14:16;;;;;;;0.28;0.17;;;;;;;19.23;100.00;99066.47;7394711;19;20029;-60
2023/07/16 14:16:43;;;;;;;0.57;0.10;;;;;;;19.65;100.00;99070.72;7393121;19;20072;-78
2023/07/16 14:19:09;;;;;;;3.15;0.70;;;;;;;19.19;100.00;99074.56;7392264;19;20022;-78
2023/07/16 14:21:35;;;;;;;0.10;0.10;;;;;;;18.82;100.00;99075.00;7390795;19;20052;-78
2023/07/16 14:24:02;;;;;;;0.70;0.65;;;;;;;18.62;100.00;99073.72;7390395;19;20385;-79
2023/07/16 14:26:28;;;;;;;0.25;0.22;;;;;;;18.81;100.00;99073.50;7390131;19;20015;-78
2023/07/16 14:28:54;;;;;;;1.52;0.30;;;;;;;19.47;100.00;99071.75;7391729;19;20658;-79
2023/07/16 14:31:20;;;;;;;0.55;0.10;;;;;;;19.61;100.00;99070.34;7391232;19;20014;-78
2023/07/16 14:33:47;;;;;;;4.97;0.30;;;;;;;19.48;100.00;99078.94;7391021;19;20019;-79
2023/07/16 14:36:13;;;;;;;0.10;0.10;;;;;;;19.23;100.00;99077.78;7391154;19;20014;-79
2023/07/16 14:38:39;;;;;;;0.38;0.30;;;;;;;19.23;100.00;99074.94;7391270;19;20369;-79
2023/07/16 14:41:07;;;;;;;5.05;0.57;;;;;;;21.92;100.00;99064.53;7391941;19;20116;-79
2023/07/16 14:43:34;;;;;;;0.60;0.20;;;;;;;21.14;100.00;99073.75;7391353;19;20468;-78
2023/07/16 14:46:00;;;;;;;0.20;0.10;;;;;;;21.13;100.00;99071.50;7391731;19;20019;-79
2023/07/16 14:48:29;;;;;;;0.10;0.10;;;;;;;20.46;100.00;99072.94;7390515;19;20082;-79
2023/07/16 14:50:55;;;;;;;4.47;0.28;;;;;;;20.60;100.00;99062.94;7391074;19;20021;-79
2023/07/16 14:53:21;;;;;;;1.00;0.40;;;;;;;21.28;100.00;99059.38;7390377;19;20070;-79
2023/07/16 14:55:51;;;;;;;0.98;0.25;;;;;;;21.36;100.00;99055.22;7390319;19;20021;-79
2023/07/16 14:58:19;;;;;;;0.00;0.00;;;;;;;21.05;100.00;99060.16;7391958;19;20354;-79
2023/07/16 15:00:45;;;;;;;0.10;0.10;;;;;;;20.94;100.00;99054.84;7391430;19;20014;-79
2023/07/16 15:03:12;;;;;;;0.47;0.10;;;;;;;20.59;100.00;99061.47;7394983;19;20019;-78
2023/07/16 15:05:38;;;;;;;0.20;0.10;;;;;;;20.80;100.00;99062.03;7390132;19;20019;-79
2023/07/16 15:08:05;;;;;;;3.20;0.95;;;;;;;20.94;100.00;99062.63;7390685;19;20349;-78
2023/07/16 15:10:32;;;;;;;1.52;0.35;;;;;;;20.68;100.00;99066.53;7392078;19;20010;-78
2023/07/16 15:12:59;;;;;;;0.10;0.10;;;;;;;20.89;100.00;99052.97;7390365;19;20127;-78
2023/07/16 15:15:25;;;;;;;0.10;0.10;;;;;;;20.85;100.00;99043.34;7390422;19;20014;-78
2023/07/16 15:17:51;;;;;;;0.20;0.15;;;;;;;21.13;100.00;99046.78;7390422;19;20018;-78
2023/07/16 15:20:18;;;;;;;0.20;0.17;;;;;;;21.42;100.00;99055.03;7389540;19;20018;-78
2023/07/16 15:22:44;;;;;;;0.10;0.10;;;;;;;21.91;100.00;99049.59;7391365;19;20074;-78
2023/07/16 15:25:12;;;;;;;0.00;0.00;;;;;;;22.29;100.00;99038.81;7390250;19;20017;-78
2023/07/16 15:27:38;;;;;;;0.10;0.00;;;;;;;22.18;100.00;99053.44;7388246;19;20015;-78
2023/07/16 15:30:05;;;;;;;0.10;0.10;;;;;;;22.34;100.00;99043.53;7389659;19;20015;-78
2023/07/16 15:32:31;;;;;;;0.35;0.10;;;;;;;21.99;100.00;99047.47;7391106;19;20018;-78
2023/07/16 15:34:57;;;;;;;0.47;0.28;;;;;;;21.78;100.00;99061.91;7388447;19;20018;-78
2023/07/16 15:37:23;;;;;;;1.65;0.10;;;;;;;21.85;100.00;99063.97;7388227;19;20035;-78
2023/07/16 15:39:49;;;;;;;3.50;0.10;;;;;;;22.74;100.00;99051.22;7394591;19;20487;-78
2023/07/16 15:42:15;;;;;;;1.15;0.10;;;;;;;22.80;100.00;99061.03;7389707;19;20014;-78
2023/07/16 15:44:42;;;;;;;0.22;0.10;;;;;;;23.66;100.00;99064.78;7390583;19;20033;-78
2023/07/16 15:50:11;;;;;;;2.22;0.10;;;;;;;23.87;100.00;99067.94;7394025;19;20015;-55
2023/07/16 16:09:07;;;;;;;0.20;0.20;;;;;;;21.33;100.00;99083.94;7401540;19;20009;-54
2023/07/16 16:11:33;;;;;;;0.28;0.28;;;;;;;21.62;100.00;99088.78;7396860;19;20011;-54
2023/07/16 16:13:59;;;;;;;1.92;0.13;;;;;;;22.15;100.00;99088.63;7398229;19;20018;-54
2023/07/16 16:16:25;;;;;;;1.75;0.10;;;;;;;22.25;100.00;99081.00;7399752;19;20466;-54
2023/07/16 16:18:52;;;;;;;0.20;0.10;;;;;;;21.88;100.00;99098.94;7399442;19;20010;-55
2023/07/16 16:21:18;;;;;;;0.55;0.10;;;;;;;21.68;100.00;99094.22;7400072;19;20015;-55
2023/07/16 16:23:45;;;;;;;4.32;0.30;;;;;;;21.83;100.00;99094.22;7400568;19;20496;-54
2023/07/16 16:26:11;;;;;;;0.85;0.35;;;;;;;22.13;100.00;99101.88;7399611;19;20407;-55
2023/07/16 16:28:38;;;;;;;0.88;0.50;;;;;;;22.06;100.00;99102.66;7400142;19;20031;-54
2023/07/16 16:31:06;;;;;;;0.40;0.10;;;;;;;21.78;100.00;99101.59;7400790;19;20048;-55
2023/07/16 16:33:32;;;;;;;0.75;0.38;;;;;;;21.79;100.00;99096.66;7398435;19;20359;-54
2023/07/16 16:35:58;;;;;;;0.10;0.10;;;;;;;21.52;100.00;99101.28;7399680;19;20010;-55
2023/07/16 16:49:06;;;;;;;;;;;;;;;;;;;;;
2023/07/16 16:55:03;;;;;;;4.47;0.45;;;;;;;21.86;100.00;99101.59;7398641;19;20011;-54
2023/07/16 16:57:30;;;;;;;2.20;0.10;;;;;;;21.50;100.00;99103.94;7398607;19;20007;-54
2023/07/16 16:59:57;;;;;;;1.23;0.30;;;;;;;21.73;100.00;99110.28;7398534;19;20455;-55
2023/07/16 17:02:23;;;;;;;0.85;0.30;;;;;;;21.79;100.00;99108.00;7398432;19;20329;-54
2023/07/16 17:04:49;;;;;;;1.75;0.28;;;;;;;21.82;100.00;99104.81;7397460;19;20466;-55
2023/07/16 17:07:16;;;;;;;1.17;0.50;;;;;;;21.88;100.00;99111.03;7397157;19;20108;-54
2023/07/16 17:22:55;;;;;;;1.10;0.20;;;;;;;21.76;100.00;99120.50;7397319;19;20070;-55
2023/07/16 17:25:21;;;;;;;0.32;0.28;;;;;;;21.59;100.00;99126.03;7394534;19;20022;-54
2023/07/16 17:27:48;;;;;;;0.00;0.00;;;;;;;21.09;100.00;99134.16;7395539;19;20021;-55
2023/07/16 17:30:16;;;;;;;0.28;0.10;;;;;;;21.18;100.00;99134.94;7393504;19;20014;-55
2023/07/16 17:32:42;;;;;;;0.17;0.08;;;;;;;20.93;100.00;99132.63;7399422;19;20014;-55
2023/07/16 17:35:08;;;;;;;0.30;0.13;;;;;;;20.93;100.00;99132.63;7396582;19;20034;-55
2023/07/16 17:37:34;;;;;;;0.85;0.55;;;;;;;20.80;100.00;99135.63;7397386;19;20463;-55
2023/07/16 17:47:38;;;;;;;0.32;0.32;;;;;;;21.57;100.00;99142.84;7393408;19;20038;-76
2023/07/16 17:50:04;;;;;;;0.55;0.30;;;;;;;21.84;100.00;99144.69;7390781;19;20026;-76
2023/07/16 17:52:31;;;;;;;0.20;0.20;;;;;;;21.58;100.00;99144.34;7393351;19;20018;-76
2023/07/16 17:54:57;;;;;;;1.30;0.10;;;;;;;22.32;100.00;99147.56;7390534;19;20081;-76
2023/07/16 17:57:23;;;;;;;1.27;0.30;;;;;;;21.93;100.00;99146.19;7391524;19;20025;-76
2023/07/16 17:59:49;;;;;;;0.10;0.10;;;;;;;22.25;100.00;99149.09;7392533;19;20019;-76
2023/07/16 18:02:15;;;;;;;0.30;0.30;;;;;;;22.25;100.00;99145.50;7393652;19;20021;-76
2023/07/16 18:04:42;;;;;;;0.10;0.10;;;;;;;22.30;100.00;99153.81;7395321;19;20033;-76
2023/07/16 18:07:08;;;;;;;0.20;0.20;;;;;;;22.76;100.00;99151.50;7390910;19;20026;-76
2023/07/16 18:09:34;;;;;;;0.10;0.10;;;;;;;21.91;100.00;99154.50;7391865;19;20357;-76
2023/07/16 18:12:00;;;;;;;1.08;0.20;;;;;;;21.75;100.00;99164.34;7392546;19;20011;-76
2023/07/16 18:14:27;;;;;;;2.35;0.17;;;;;;;22.08;100.00;99151.03;7390231;19;20018;-76
2023/07/16 18:16:53;;;;;;;0.93;0.20;;;;;;;21.88;100.00;99164.16;7393533;19;20513;-76
2023/07/16 18:19:20;;;;;;;1.55;0.35;;;;;;;21.97;100.00;99163.56;7392168;19;20377;-76
2023/07/16 18:21:49;;;;;;;1.98;0.20;;;;;;;21.25;100.00;99173.81;7391485;19;20025;-76
2023/07/16 18:24:15;;;;;;;0.10;0.10;;;;;;;19.51;100.00;99168.19;7389438;19;20555;-75
2023/07/16 18:26:41;;;;;;;0.20;0.10;;;;;;;19.34;100.00;99167.84;7390057;19;20018;-76
2023/07/16 18:29:07;;;;;;;0.38;0.10;;;;;;;19.87;100.00;99176.72;7393775;19;20468;-76
2023/07/16 18:31:33;;;;;;;0.65;0.20;;;;;;;20.05;100.00;99174.94;7390555;19;20443;-76
2023/07/16 18:33:59;;;;;;;0.52;0.13;;;;;;;19.57;100.00;99177.28;7389924;19;20126;-76
2023/07/16 18:36:26;;;;;;;0.10;0.10;;;;;;;19.64;100.00;99182.22;7389722;19;20018;-78
2023/07/16 18:38:52;;;;;;;1.90;0.50;;;;;;;19.86;100.00;99180.09;7390004;19;20018;-75
2023/07/16 18:41:18;;;;;;;0.32;0.25;;;;;;;19.94;100.00;99178.06;7394543;19;20018;-76
2023/07/16 18:43:45;;;;;;;1.02;0.17;;;;;;;19.77;100.00;99189.84;7391660;19;20010;-76
2023/07/16 18:46:11;;;;;;;0.20;0.10;;;;;;;19.65;100.00;99195.03;7390763;19;20495;-76
2023/07/16 18:48:37;;;;;;;0.28;0.15;;;;;;;19.49;100.00;99199.03;7391611;19;20019;-76
2023/07/16 18:51:03;;;;;;;0.98;0.22;;;;;;;19.95;100.00;99207.84;7390108;19;20042;-76
2023/07/16 18:53:32;;;;;;;0.10;0.10;;;;;;;21.58;100.00;99204.59;7393455;19;20011;-76
2023/07/16 18:55:58;;;;;;;0.90;0.35;;;;;;;19.91;100.00;99201.78;7391898;19;20022;-76
2023/07/16 18:58:24;;;;;;;0.20;0.20;;;;;;;20.25;100.00;99208.78;7390790;19;20022;-76
2023/07/16 19:00:53;;;;;;;0.10;0.10;;;;;;;20.66;100.00;99209.94;7390629;19;20014;-76
2023/07/16 19:03:20;;;;;;;0.10;0.10;;;;;;;20.97;100.00;99209.44;7395725;19;20006;-76
2023/07/16 19:05:46;;;;;;;0.52;0.20;;;;;;;20.68;100.00;99201.63;7392202;19;20023;-77
2023/07/16 19:08:13;;;;;;;3.28;1.15;;;;;;;20.70;100.00;99207.47;7391831;19;20019;-76
2023/07/16 19:10:39;;;;;;;0.63;0.22;;;;;;;19.79;100.00;99204.19;7391873;19;20015;-78
2023/07/16 19:13:06;;;;;;;4.47;0.30;;;;;;;19.47;100.00;99212.19;7390462;19;20026;-78
2023/07/16 19:15:32;;;;;;;1.95;0.17;;;;;;;19.36;100.00;99207.59;7393563;19;20368;-76
2023/07/16 19:17:59;;;;;;;0.35;0.35;;;;;;;19.31;100.00;99211.31;7391680;19;20018;-76
2023/07/16 19:20:25;;;;;;;1.58;0.40;;;;;;;19.77;100.00;99211.69;7391537;19;20011;-78
2023/07/16 19:22:51;;;;;;;0.13;0.13;;;;;;;19.12;100.00;99210.75;7392034;19;20019;-76
2023/07/16 19:25:17;;;;;;;8.05;0.35;;;;;;;19.15;100.00;99215.28;7389930;19;20553;-76
2023/07/16 19:27:43;;;;;;;0.20;0.20;;;;;;;18.60;100.00;99213.78;7392602;19;20157;-76
2023/07/16 19:30:10;;;;;;;2.22;0.38;;;;;;;18.30;100.00;99221.81;7391352;19;20081;-78
2023/07/16 19:32:36;;;;;;;0.20;0.20;;;;;;;17.94;100.00;99227.91;7391129;19;20036;-78
2023/07/16 19:35:03;;;;;;;1.85;0.10;;;;;;;17.57;100.00;99235.75;7391186;19;20029;-78
2023/07/16 19:37:32;;;;;;;0.10;0.10;;;;;;;17.16;100.00;99247.44;7398375;19;20026;-78
2023/07/16 19:40:00;;;;;;;0.10;0.10;;;;;;;17.57;100.00;99247.78;7399467;19;20119;-79
2023/07/16 19:42:27;;;;;;;0.10;0.10;;;;;;;18.07;100.00;99242.00;7398997;19;20468;-78
2023/07/16 19:44:55;;;;;;;0.82;0.82;;;;;;;17.55;100.00;99241.94;7399474;19;20458;-78
2023/07/16 19:47:22;;;;;;;0.10;0.10;;;;;;;17.30;100.00;99251.81;7395463;19;20015;-78
2023/07/16 19:49:48;;;;;;;4.90;0.57;;;;;;;17.46;100.00;99247.94;7399921;19;20037;-78
2023/07/16 19:52:14;;;;;;;3.85;0.47;;;;;;;18.01;100.00;99252.63;7398995;19;20011;-77
2023/07/16 19:54:40;;;;;;;0.40;0.20;;;;;;;17.21;100.00;99266.28;7396402;19;20022;-78
2023/07/16 19:57:06;;;;;;;0.20;0.20;;;;;;;17.47;100.00;99266.38;7396625;19;20014;-78
2023/07/16 19:59:33;;;;;;;1.70;0.60;;;;;;;17.86;100.00;99260.84;7400261;19;20018;-77
2023/07/16 20:02:00;;;;;;;0.90;0.90;;;;;;;18.12;100.00;99268.56;7397835;19;20034;-78
2023/07/16 20:04:26;;;;;;;4.95;0.60;;;;;;;18.12;100.00;99269.31;7396612;19;20435;-78
2023/07/16 20:06:52;;;;;;;0.38;0.20;;;;;;;18.24;100.00;99275.47;7396873;19;20089;-78
2023/07/16 20:09:20;;;;;;;0.50;0.50;;;;;;;18.47;100.00;99276.59;7397248;19;20352;-78
2023/07/16 20:11:47;;;;;;;2.60;0.50;;;;;;;18.60;100.00;99278.63;7399451;19;20084;-78
2023/07/16 20:14:13;;;;;;;0.20;0.13;;;;;;;18.43;100.00;99281.03;7395176;19;20464;-78
2023/07/16 20:16:39;;;;;;;0.10;0.10;;;;;;;18.30;100.00;99286.66;7396199;19;20017;-77
2023/07/16 20:19:06;;;;;;;1.05;0.73;;;;;;;18.54;100.00;99280.78;7396893;19;20011;-77
2023/07/16 20:21:32;;;;;;;0.22;0.22;;;;;;;18.46;100.00;99282.75;7396851;19;20027;-78
2023/07/16 20:23:59;;;;;;;2.00;0.32;;;;;;;18.84;100.00;99281.19;7399402;19;20014;-78
2023/07/16 20:26:26;;;;;;;7.43;0.82;;;;;;;18.59;100.00;99288.38;7396597;19;20286;-78
2023/07/16 20:28:52;;;;;;;0.43;0.20;;;;;;;19.27;100.00;99286.38;7397688;19;20333;-78
2023/07/16 20:31:18;;;;;;;0.40;0.20;;;;;;;19.52;100.00;99293.97;7398413;19;20015;-78
2023/07/16 20:33:45;;;;;;;2.80;0.88;;;;;;;19.02;100.00;99288.72;7395993;19;20018;-77
2023/07/16 20:36:11;;;;;;;0.10;0.10;;;;;;;18.74;100.00;99294.22;7399181;19;20023;-77
2023/07/16 20:38:37;;;;;;;0.47;0.30;;;;;;;18.78;100.00;99292.59;7397022;19;20127;-77
2023/07/16 20:41:05;;;;;;;0.17;0.17;;;;;;;18.96;100.00;99293.75;7396695;19;20037;-77
2023/07/16 20:43:31;;;;;;;4.75;0.38;;;;;;;19.03;100.00;99293.06;7396613;19;20010;-78
2023/07/16 20:45:57;;;;;;;1.05;0.73;;;;;;;18.27;100.00;99311.06;7397008;19;20019;-77
2023/07/16 20:48:24;;;;;;;0.32;0.32;;;;;;;17.14;100.00;99309.09;7396891;19;20014;-78
2023/07/16 20:50:50;;;;;;;0.10;0.10;;;;;;;16.98;100.00;99310.13;7397252;19;20018;-77
2023/07/16 20:53:16;;;;;;;0.10;0.10;;;;;;;17.04;100.00;99307.97;7394371;19;20022;-77
2023/07/16 20:55:43;;;;;;;0.35;0.35;;;;;;;16.48;100.00;99313.56;7396096;19;20483;-77
2023/07/16 20:58:09;;;;;;;4.38;0.90;;;;;;;16.70;100.00;99310.47;7398066;19;20018;-78
2023/07/16 21:00:37;;;;;;;0.13;0.13;;;;;;;16.92;100.00;99315.03;7396636;19;20006;-78
2023/07/16 21:03:05;;;;;;;0.10;0.10;;;;;;;17.63;100.00;99313.22;7399968;19;20018;-77
2023/07/16 21:05:33;;;;;;;0.45;0.30;;;;;;;17.67;100.00;99313.66;7394326;19;20052;-78
2023/07/16 21:07:59;;;;;;;0.10;0.10;;;;;;;18.61;100.00;99323.22;7395231;19;20480;-78
2023/07/16 21:10:26;;;;;;;0.40;0.40;;;;;;;18.74;100.00;99320.38;7397783;19;20018;-77
2023/07/16 21:13:05;;;;;;;2.00;0.85;;;;;;;19.15;100.00;99328.19;7395847;19;20019;-78
2023/07/16 21:15:32;;;;;;;3.55;0.40;;;;;;;19.01;100.00;99332.38;7393557;19;20019;-77
2023/07/16 21:18:00;;;;;;;3.35;0.38;;;;;;;17.93;100.00;99333.44;7394035;19;20010;-78
2023/07/16 21:20:28;;;;;;;0.28;0.20;;;;;;;18.13;100.00;99327.19;7395084;19;20484;-78
2023/07/16 21:22:55;;;;;;;0.20;0.10;;;;;;;17.92;100.00;99328.34;7398342;19;20019;-78
2023/07/16 21:25:21;;;;;;;0.20;0.20;;;;;;;18.08;100.00;99336.50;7395606;19;20011;-78
2023/07/16 21:27:54;;;;;;;5.15;0.35;;;;;;;18.29;100.00;99324.59;7393058;19;20014;-77
2023/07/16 21:30:21;;;;;;;0.47;0.47;;;;;;;18.34;100.00;99329.38;7395136;19;20109;-78
2023/07/16 21:32:48;;;;;;;1.08;0.85;;;;;;;18.11;100.00;99329.78;7394639;19;20022;-77
2023/07/16 21:35:14;;;;;;;3.30;0.40;;;;;;;18.64;100.00;99338.28;7396372;19;20025;-78
2023/07/16 21:37:40;;;;;;;0.85;0.55;;;;;;;18.34;100.00;99329.38;7392653;19;20124;-77
2023/07/16 21:40:08;;;;;;;5.25;1.13;;;;;;;18.27;100.00;99335.66;7394365;19;20352;-78
2023/07/16 21:42:34;;;;;;;2.65;0.45;;;;;;;18.37;100.00;99333.91;7394717;19;20025;-78
2023/07/16 21:45:01;;;;;;;10.60;0.60;;;;;;;17.52;100.00;99335.91;7394435;19;20015;-77
2023/07/16 21:47:27;;;;;;;0.82;0.30;;;;;;;17.77;100.00;99345.78;7395596;19;20077;-78
2023/07/16 21:49:53;;;;;;;0.30;0.30;;;;;;;18.08;100.00;99338.56;7395189;19;20014;-77
2023/07/16 21:52:20;;;;;;;0.38;0.38;;;;;;;17.92;100.00;99346.03;7392277;19;20018;-77
2023/07/16 21:54:47;;;;;;;0.40;0.20;;;;;;;18.22;100.00;99345.75;7391559;19;20010;-77
2023/07/16 21:57:14;;;;;;;3.20;0.30;;;;;;;18.07;100.00;99346.25;7388933;19;20007;-78
2023/07/16 21:59:41;;;;;;;0.47;0.38;;;;;;;17.70;100.00;99352.03;7397550;19;20015;-78
2023/07/16 22:02:07;;;;;;;3.92;0.50;;;;;;;17.59;100.00;99355.00;7395601;19;20342;-77
2023/07/16 22:04:33;;;;;;;1.70;0.57;;;;;;;17.31;100.00;99355.41;7392555;19;20011;-77
2023/07/16 22:07:00;;;;;;;1.50;0.32;;;;;;;16.60;100.00;99348.69;7390548;19;20014;-77
2023/07/16 22:09:26;;;;;;;0.63;0.40;;;;;;;17.25;100.00;99351.16;7393272;19;20038;-78
2023/07/16 22:11:53;;;;;;;2.83;0.75;;;;;;;17.36;100.00;99345.38;7397488;19;20014;-77
2023/07/16 22:14:19;;;;;;;4.50;0.70;;;;;;;17.63;100.00;99349.81;7392512;19;20019;-77
2023/07/16 22:19:49;;;;;;;4.57;0.70;;;;;;;16.35;100.00;99350.72;7396147;19;20015;-53
2023/07/16 22:22:15;;;;;;;0.95;0.73;;;;;;;15.82;100.00;99355.09;7394011;19;20015;-53
2023/07/16 22:25:01;;;;;;;0.40;0.25;;;;;;;16.86;100.00;99353.75;7394311;19;20380;-53
2023/07/16 22:28:41;;;;;;;3.20;0.80;;;;;;;16.88;100.00;99351.16;7394970;19;20010;-54
2023/07/16 22:33:01;;;;;;;0.75;0.32;;;;;;;16.99;100.00;99356.63;7398589;19;20021;-56
2023/07/16 22:39:33;;;;;;;5.05;1.02;;;;;;;17.23;100.00;99362.97;7399815;19;20038;-53
2023/07/16 23:00:46;;;;;;;0.28;0.28;;;;;;;16.94;100.00;99371.53;7398472;19;20049;-54
2023/07/16 23:04:03;;;;;;;14.25;1.40;;;;;;;18.83;100.00;99375.59;7397407;19;20372;-54
2023/07/16 23:18:02;;;;;;;2.33;0.77;;;;;;;16.22;100.00;99387.13;7393531;19;20027;-53
2023/07/16 23:21:35;;;;;;;0.40;0.35;;;;;;;16.51;100.00;99386.38;7392145;19;20011;-53
2023/07/16 23:24:46;;;;;;;5.38;0.68;;;;;;;16.53;100.00;99389.41;7396412;19;20039;-53
2023/07/16 23:27:34;;;;;;;0.80;0.43;;;;;;;15.86;100.00;99394.09;7393798;19;20017;-53
2023/07/16 23:30:11;;;;;;;1.20;0.70;;;;;;;16.26;100.00;99393.25;7392148;19;20354;-53
2023/07/16 23:32:51;;;;;;;0.85;0.47;;;;;;;16.56;100.00;99393.22;7391724;19;20011;-53
2023/07/16 23:35:51;;;;;;;0.47;0.32;;;;;;;16.30;100.00;99385.28;7394715;19;20011;-53
2023/07/16 23:42:38;;;;;;;;;;;;;;;;;;;;;
2023/07/16 23:46:27;;;;;;;;;;;;;;;;;;;;;
2023/07/16 23:56:52;;;;;;;0.40;0.20;;;;;;;16.31;100.00;99408.50;7390077;19;20351;-53
2023/07/16 23:59:18;;;;;;;0.63;0.30;;;;;;;16.08;100.00;99399.53;7392451;19;20403;-53
